• Join FlightAware (Why Join?)
  • Login
  • US Flag 
02:47PM EDT


 

Airport Tracker/Info


-or-


 

Live Flight TrackerFlight Track Log ✈ DAL6032 ✈ 15-Apr-2013 ✈ KMEM - KCMH

Flight Track Log - Related Links

Times and Time Zones

All times are in EDT time to prevent confusion due to time zone crossing. See the DAL6032 flight status page for this flight to view local times or setup timezone preferences in your user account.

Time Position Orientation Groundspeed Altitude Reporting Facility
EDT Latitude Longitude Course Direction KTS MPH feet Rate Location/Type
08:59PM 35.0167 -89.9667 180° South 169 194 1,100  Level KMEM
09:00PM 35.0000 -89.9667 180° South 161 185 2,200 1,980 Climbing KMEM
09:01PM 34.9500 -89.9500 165° South 236 272 4,100 2,040 Climbing KMEM
09:02PM 34.9333 -89.8667 104° East 282 325 6,300 2,280 Climbing KMEM
09:03PM 34.9500 -89.7667 78° East 302 348 8,700 1,980 Climbing KMEM
09:04PM 35.0056 -89.6725 54° Northeast 328 377 10,800 1,440 Climbing Memphis Center
09:05PM 35.0508 -89.5708 61° Northeast 328 377 12,000 1,200 Climbing Memphis Center
09:06PM 35.0981 -89.4611 62° Northeast 348 400 13,300 1,380 Climbing Memphis Center
09:07PM 35.1472 -89.3489 62° Northeast 363 418 14,800 1,500 Climbing Memphis Center
09:08PM 35.2025 -89.2236 62° Northeast 373 429 16,300 1,500 Climbing Memphis Center
09:09PM 35.2578 -89.1136 58° Northeast 373 429 17,800 1,440 Climbing Memphis Center
09:10PM 35.3253 -89.0083 52° Northeast 381 438 19,200 1,320 Climbing Memphis Center
09:11PM 35.3950 -88.9053 50° Northeast 392 451 20,500 1,200 Climbing Memphis Center
09:12PM 35.4525 -88.8100 53° Northeast 410 472 21,600 1,200 Climbing Memphis Center
09:13PM 35.5281 -88.6911 52° Northeast 410 472 22,900 1,260 Climbing Memphis Center
09:14PM 35.6017 -88.5800 51° Northeast 410 472 24,200 1,260 Climbing Memphis Center
09:15PM 35.6750 -88.4658 52° Northeast 416 479 25,500 1,440 Climbing Memphis Center
09:16PM 35.7564 -88.3386 52° Northeast 428 493 27,100 1,440 Climbing Memphis Center
09:17PM 35.8294 -88.2242 52° Northeast 428 493 28,400 1,260 Climbing Memphis Center
09:18PM 35.9028 -88.1147 50° Northeast 422 486 29,700 1,260 Climbing Memphis Center
09:19PM 35.9883 -88.0200 42° Northeast 412 474 31,000 1,200 Climbing Memphis Center
09:20PM 36.0661 -87.9381 40° Northeast 412 474 32,100 960 Climbing Memphis Center
09:21PM 36.1581 -87.8456 39° Northeast 417 480 33,000 420 Climbing Memphis Center
09:22PM 36.2519 -87.7422 42° Northeast 430 495 33,000  Level Memphis Center
09:23PM 36.3558 -87.6358 40° Northeast 462 532 33,000  Level Memphis Center
09:24PM 36.4597 -87.5264 40° Northeast 475 547 33,000  Level Memphis Center
09:25PM 36.5736 -87.4061 40° Northeast 481 554 33,000  Level Memphis Center
09:26PM 36.6772 -87.2964 40° Northeast 488 562 33,000  Level Memphis Center
09:27PM 36.7789 -87.1889 40° Northeast 495 570 33,000  Level Memphis Center
09:30PM 37.0169 -86.9311 41° Northeast 483 556 33,000  Level Indianapolis Center
09:31PM 37.1203 -86.8203 41° Northeast 483 556 33,000  Level Indianapolis Center
09:32PM 37.2231 -86.7081 41° Northeast 483 556 33,000  Level Indianapolis Center
09:33PM 37.3264 -86.5967 41° Northeast 485 558 33,000  Level Indianapolis Center
09:34PM 37.4317 -86.4819 41° Northeast 484 557 33,000  Level Indianapolis Center
09:35PM 37.5322 -86.3708 41° Northeast 487 560 33,000  Level Indianapolis Center
09:36PM 37.6347 -86.2606 40° Northeast 481 554 33,000  Level Indianapolis Center
09:37PM 37.7347 -86.1500 41° Northeast 484 557 33,000  Level Indianapolis Center
09:38PM 37.8369 -86.0372 41° Northeast 488 562 33,000  Level Indianapolis Center
09:39PM 37.9392 -85.9253 41° Northeast 486 559 33,000  Level Indianapolis Center
09:40PM 38.0403 -85.8108 42° Northeast 487 560 33,000  Level Indianapolis Center
09:41PM 38.1431 -85.6969 41° Northeast 486 559 33,000  Level Indianapolis Center
09:42PM 38.2436 -85.5839 41° Northeast 487 560 33,000  Level Indianapolis Center
09:43PM 38.3658 -85.4467 41° Northeast 487 560 33,000  Level Indianapolis Center
09:44PM 38.4678 -85.3319 41° Northeast 488 562 33,000 -240 Level Indianapolis Center
09:45PM 38.5683 -85.2164 42° Northeast 488 562 32,600 -960 Descending Indianapolis Center
09:46PM 38.6692 -85.1022 41° Northeast 484 557 31,100 -1,500 Descending Indianapolis Center
09:47PM 38.7672 -84.9894 42° Northeast 476 548 29,600 -1,920 Descending Indianapolis Center
09:48PM 38.8644 -84.8778 42° Northeast 471 542 27,200 -2,460 Descending Indianapolis Center
09:49PM 38.9617 -84.7664 42° Northeast 469 540 24,700 -1,620 Descending Indianapolis Center
09:50PM 39.0514 -84.6400 48° Northeast 479 551 24,000 -1,080 Descending Indianapolis Center
09:51PM 39.1283 -84.5008 54° Northeast 471 542 22,600 -1,560 Descending Indianapolis Center
09:52PM 39.2022 -84.3653 55° Northeast 460 529 20,900 -1,620 Descending Indianapolis Center
09:53PM 39.2747 -84.2339 54° Northeast 449 517 19,300 -960 Descending Indianapolis Center
09:54PM 39.3350 -84.0942 61° Northeast 442 509 19,000 -840 Descending Indianapolis Center
09:55PM 39.3994 -83.9244 64° Northeast 448 516 17,600 -1,560 Descending Indianapolis Center
09:56PM 39.4536 -83.7822 64° Northeast 440 506 15,900 -1,860 Descending Indianapolis Center
09:57PM 39.5069 -83.6428 64° Northeast 432 497 13,900 -2,100 Descending Indianapolis Center
09:58PM 39.5406 -83.5556 63° Northeast 427 491 12,500 -2,280 Descending Indianapolis Center
09:58PM 39.5600 -83.5069 63° Northeast 424 488 11,600 -1,680 Descending Indianapolis Center
09:59PM 39.6169 -83.4539 36° Northeast 379 436 10,800 -1,320 Descending Indianapolis Center
09:59PM 39.6422 -83.4236 43° Northeast 370 426 10,300 -1,140 Descending Indianapolis Center
10:00PM 39.6908 -83.3869 30° Northeast 305 351 9,700 -1,500 Descending Indianapolis Center
10:00PM 39.7156 -83.3658 33° Northeast 312 359 8,800 -1,920 Descending Indianapolis Center
10:01PM 39.7639 -83.3333 27° Northeast 294 338 7,800 -1,800 Descending Indianapolis Center
10:01PM 39.7886 -83.3147 30° Northeast 301 346 7,000 -1,980 Descending Indianapolis Center
10:02PM 39.8364 -83.2850 26° Northeast 293 337 5,800 -1,980 Descending Indianapolis Center
10:02PM 39.8619 -83.2664 29° Northeast 297 342 5,000 -1,620 Descending Indianapolis Center
10:03PM 39.9086 -83.2419 22° Northeast 288 331 4,200 -1,080 Descending Indianapolis Center
10:03PM 39.9347 -83.2278 23° Northeast 290 334 3,900 -600 Descending Indianapolis Center
10:04PM 39.9867 -83.2022 21° North 276 318 3,600 -600 Descending Indianapolis Center
10:04PM 40.0050 -83.1897 28° Northeast 280 322 3,300 -600 Descending Indianapolis Center
10:05PM 40.0186 -83.1325 73° East 236 272 3,000 -300 Descending Indianapolis Center
10:05PM 40.0175 -83.1072 93° East 259 298 3,000  Level Indianapolis Center
10:06PM 40.0114 -83.0556 99° East 180 207 3,000 -240 Level Indianapolis Center
10:06PM 40.0108 -83.0369 92° East 217 250 2,800 -720 Descending Indianapolis Center
10:07PM 40.0089 -83.0033 94° East 128 147 2,300 -720 Descending Indianapolis Center
10:07PM 40.0081 -82.9889 94° East 156 180 2,100 -720 Descending Indianapolis Center
10:08PM 40.0056 -82.9594 96° East 121 139 1,600 -720 Descending Indianapolis Center
10:08PM 40.0050 -82.9436 93° East 135 155 1,400 -480 Descending Indianapolis Center